sensor_id;sensor_type;location;lat;lon;timestamp;P1;durP1;ratioP1;P2;durP2;ratioP2
43670;SDS011;29267;50.906;7.248;2023-07-20T00:00:49;6.35;;;2.38;;
43670;SDS011;29267;50.906;7.248;2023-07-20T00:03:18;5.07;;;2.05;;
43670;SDS011;29267;50.906;7.248;2023-07-20T00:05:48;4.57;;;2.17;;
43670;SDS011;29267;50.906;7.248;2023-07-20T00:08:14;4.10;;;2.53;;
43670;SDS011;29267;50.906;7.248;2023-07-20T00:10:40;5.00;;;2.60;;
43670;SDS011;29267;50.906;7.248;2023-07-20T00:13:06;8.05;;;2.60;;
43670;SDS011;29267;50.906;7.248;2023-07-20T00:15:32;6.20;;;1.90;;
43670;SDS011;29267;50.906;7.248;2023-07-20T00:17:57;10.27;;;2.08;;
43670;SDS011;29267;50.906;7.248;2023-07-20T00:20:23;5.55;;;3.13;;
43670;SDS011;29267;50.906;7.248;2023-07-20T00:22:50;5.53;;;2.15;;
43670;SDS011;29267;50.906;7.248;2023-07-20T00:25:16;5.63;;;2.08;;
43670;SDS011;29267;50.906;7.248;2023-07-20T00:27:42;4.50;;;2.08;;
43670;SDS011;29267;50.906;7.248;2023-07-20T00:30:08;8.13;;;2.58;;
43670;SDS011;29267;50.906;7.248;2023-07-20T00:32:34;5.65;;;2.33;;
43670;SDS011;29267;50.906;7.248;2023-07-20T00:35:00;3.75;;;2.53;;
43670;SDS011;29267;50.906;7.248;2023-07-20T00:37:25;4.93;;;2.50;;
43670;SDS011;29267;50.906;7.248;2023-07-20T00:39:51;5.90;;;2.35;;
43670;SDS011;29267;50.906;7.248;2023-07-20T00:42:18;6.75;;;2.70;;
43670;SDS011;29267;50.906;7.248;2023-07-20T00:44:43;10.85;;;2.60;;
43670;SDS011;29267;50.906;7.248;2023-07-20T00:47:09;5.35;;;1.92;;
43670;SDS011;29267;50.906;7.248;2023-07-20T00:49:35;9.77;;;2.30;;
43670;SDS011;29267;50.906;7.248;2023-07-20T00:52:00;7.38;;;2.28;;
43670;SDS011;29267;50.906;7.248;2023-07-20T00:54:28;4.60;;;2.50;;
43670;SDS011;29267;50.906;7.248;2023-07-20T00:56:54;7.05;;;2.63;;
43670;SDS011;29267;50.906;7.248;2023-07-20T00:59:20;6.45;;;2.13;;
43670;SDS011;29267;50.906;7.248;2023-07-20T01:01:46;7.80;;;2.65;;
43670;SDS011;29267;50.906;7.248;2023-07-20T01:04:12;4.25;;;2.70;;
43670;SDS011;29267;50.906;7.248;2023-07-20T01:14:28;6.65;;;2.55;;
43670;SDS011;29267;50.906;7.248;2023-07-20T01:16:54;6.90;;;2.80;;
43670;SDS011;29267;50.906;7.248;2023-07-20T01:19:20;8.02;;;2.80;;
43670;SDS011;29267;50.906;7.248;2023-07-20T01:30:18;5.72;;;2.60;;
43670;SDS011;29267;50.906;7.248;2023-07-20T01:33:00;4.57;;;2.72;;
43670;SDS011;29267;50.906;7.248;2023-07-20T01:35:27;5.22;;;2.92;;
43670;SDS011;29267;50.906;7.248;2023-07-20T01:37:55;7.55;;;3.30;;
43670;SDS011;29267;50.906;7.248;2023-07-20T01:40:22;4.57;;;2.75;;
43670;SDS011;29267;50.906;7.248;2023-07-20T01:42:50;9.32;;;2.85;;
43670;SDS011;29267;50.906;7.248;2023-07-20T01:45:17;6.45;;;3.05;;
43670;SDS011;29267;50.906;7.248;2023-07-20T01:47:43;6.93;;;2.80;;
43670;SDS011;29267;50.906;7.248;2023-07-20T01:50:08;11.10;;;2.90;;
43670;SDS011;29267;50.906;7.248;2023-07-20T01:52:34;8.43;;;3.13;;
43670;SDS011;29267;50.906;7.248;2023-07-20T01:55:00;5.32;;;2.88;;
43670;SDS011;29267;50.906;7.248;2023-07-20T01:57:25;5.03;;;2.38;;
43670;SDS011;29267;50.906;7.248;2023-07-20T01:59:51;4.80;;;2.67;;
43670;SDS011;29267;50.906;7.248;2023-07-20T02:02:16;10.90;;;3.45;;
43670;SDS011;29267;50.906;7.248;2023-07-20T02:04:43;8.40;;;2.63;;
43670;SDS011;29267;50.906;7.248;2023-07-20T02:07:08;7.45;;;3.28;;
43670;SDS011;29267;50.906;7.248;2023-07-20T02:09:34;6.07;;;2.55;;
43670;SDS011;29267;50.906;7.248;2023-07-20T02:11:59;6.25;;;3.30;;
43670;SDS011;29267;50.906;7.248;2023-07-20T02:14:25;5.00;;;3.00;;
43670;SDS011;29267;50.906;7.248;2023-07-20T02:16:51;8.80;;;2.75;;
43670;SDS011;29267;50.906;7.248;2023-07-20T02:19:17;7.68;;;2.92;;
43670;SDS011;29267;50.906;7.248;2023-07-20T02:21:43;11.38;;;2.63;;
43670;SDS011;29267;50.906;7.248;2023-07-20T02:24:09;6.63;;;2.65;;
43670;SDS011;29267;50.906;7.248;2023-07-20T02:26:34;6.25;;;2.63;;
43670;SDS011;29267;50.906;7.248;2023-07-20T02:29:00;8.63;;;2.65;;
43670;SDS011;29267;50.906;7.248;2023-07-20T02:31:25;6.60;;;2.85;;
43670;SDS011;29267;50.906;7.248;2023-07-20T02:33:51;6.22;;;2.78;;
43670;SDS011;29267;50.906;7.248;2023-07-20T02:36:16;5.75;;;2.70;;
43670;SDS011;29267;50.906;7.248;2023-07-20T02:38:42;5.63;;;2.42;;
43670;SDS011;29267;50.906;7.248;2023-07-20T02:41:08;8.13;;;3.13;;
43670;SDS011;29267;50.906;7.248;2023-07-20T02:43:33;7.60;;;3.30;;
43670;SDS011;29267;50.906;7.248;2023-07-20T02:45:59;3.72;;;2.78;;
43670;SDS011;29267;50.906;7.248;2023-07-20T02:48:24;8.80;;;3.55;;
43670;SDS011;29267;50.906;7.248;2023-07-20T02:50:50;8.10;;;3.10;;
43670;SDS011;29267;50.906;7.248;2023-07-20T02:53:15;7.25;;;3.08;;
43670;SDS011;29267;50.906;7.248;2023-07-20T02:55:41;6.78;;;3.45;;
43670;SDS011;29267;50.906;7.248;2023-07-20T02:58:06;6.03;;;3.50;;
43670;SDS011;29267;50.906;7.248;2023-07-20T03:00:32;6.95;;;3.35;;
43670;SDS011;29267;50.906;7.248;2023-07-20T03:02:58;7.45;;;3.13;;
43670;SDS011;29267;50.906;7.248;2023-07-20T03:05:24;7.25;;;3.70;;
43670;SDS011;29267;50.906;7.248;2023-07-20T03:07:53;6.05;;;3.22;;
43670;SDS011;29267;50.906;7.248;2023-07-20T03:10:18;11.82;;;4.75;;
43670;SDS011;29267;50.906;7.248;2023-07-20T03:12:44;8.52;;;3.83;;
43670;SDS011;29267;50.906;7.248;2023-07-20T03:15:10;8.80;;;3.88;;
43670;SDS011;29267;50.906;7.248;2023-07-20T03:17:36;9.70;;;4.15;;
43670;SDS011;29267;50.906;7.248;2023-07-20T03:20:01;8.13;;;3.35;;
43670;SDS011;29267;50.906;7.248;2023-07-20T03:22:28;12.18;;;3.85;;
43670;SDS011;29267;50.906;7.248;2023-07-20T03:24:53;7.07;;;4.30;;
43670;SDS011;29267;50.906;7.248;2023-07-20T03:27:19;8.82;;;4.07;;
43670;SDS011;29267;50.906;7.248;2023-07-20T03:29:44;8.75;;;3.95;;
43670;SDS011;29267;50.906;7.248;2023-07-20T03:32:10;8.60;;;3.72;;
43670;SDS011;29267;50.906;7.248;2023-07-20T03:34:36;6.30;;;3.65;;
43670;SDS011;29267;50.906;7.248;2023-07-20T03:37:01;11.27;;;3.92;;
43670;SDS011;29267;50.906;7.248;2023-07-20T03:39:29;10.38;;;3.88;;
43670;SDS011;29267;50.906;7.248;2023-07-20T03:41:55;8.60;;;3.60;;
43670;SDS011;29267;50.906;7.248;2023-07-20T03:44:22;7.82;;;4.32;;
43670;SDS011;29267;50.906;7.248;2023-07-20T03:46:47;7.53;;;3.72;;
43670;SDS011;29267;50.906;7.248;2023-07-20T03:49:13;13.20;;;4.10;;
43670;SDS011;29267;50.906;7.248;2023-07-20T03:51:38;8.57;;;4.28;;
43670;SDS011;29267;50.906;7.248;2023-07-20T03:54:04;10.68;;;3.70;;
43670;SDS011;29267;50.906;7.248;2023-07-20T03:56:30;8.02;;;3.65;;
43670;SDS011;29267;50.906;7.248;2023-07-20T03:58:59;7.20;;;3.38;;
43670;SDS011;29267;50.906;7.248;2023-07-20T04:01:24;7.75;;;3.40;;
43670;SDS011;29267;50.906;7.248;2023-07-20T04:03:50;7.97;;;3.40;;
43670;SDS011;29267;50.906;7.248;2023-07-20T04:06:16;7.57;;;3.90;;
43670;SDS011;29267;50.906;7.248;2023-07-20T04:08:42;8.60;;;3.72;;
43670;SDS011;29267;50.906;7.248;2023-07-20T04:11:08;9.60;;;2.88;;
43670;SDS011;29267;50.906;7.248;2023-07-20T04:13:33;6.18;;;3.10;;
43670;SDS011;29267;50.906;7.248;2023-07-20T04:15:59;5.78;;;3.45;;
43670;SDS011;29267;50.906;7.248;2023-07-20T04:18:25;6.88;;;2.80;;
43670;SDS011;29267;50.906;7.248;2023-07-20T04:20:51;6.45;;;2.90;;
43670;SDS011;29267;50.906;7.248;2023-07-20T04:23:16;8.70;;;3.05;;
43670;SDS011;29267;50.906;7.248;2023-07-20T04:25:42;8.00;;;3.53;;
43670;SDS011;29267;50.906;7.248;2023-07-20T04:28:07;14.18;;;2.85;;
43670;SDS011;29267;50.906;7.248;2023-07-20T04:30:36;4.57;;;3.00;;
43670;SDS011;29267;50.906;7.248;2023-07-20T04:33:05;6.60;;;3.00;;
43670;SDS011;29267;50.906;7.248;2023-07-20T04:35:47;6.40;;;2.58;;
43670;SDS011;29267;50.906;7.248;2023-07-20T04:38:17;16.92;;;3.38;;
43670;SDS011;29267;50.906;7.248;2023-07-20T04:40:46;7.40;;;3.00;;
43670;SDS011;29267;50.906;7.248;2023-07-20T04:43:13;8.95;;;2.88;;
43670;SDS011;29267;50.906;7.248;2023-07-20T04:45:39;7.72;;;2.45;;
43670;SDS011;29267;50.906;7.248;2023-07-20T04:48:08;5.60;;;2.72;;
43670;SDS011;29267;50.906;7.248;2023-07-20T04:50:36;4.30;;;2.20;;
43670;SDS011;29267;50.906;7.248;2023-07-20T04:53:02;8.70;;;3.38;;
43670;SDS011;29267;50.906;7.248;2023-07-20T04:55:28;5.35;;;2.22;;
43670;SDS011;29267;50.906;7.248;2023-07-20T04:57:54;5.25;;;2.90;;
43670;SDS011;29267;50.906;7.248;2023-07-20T05:00:19;4.97;;;2.63;;
43670;SDS011;29267;50.906;7.248;2023-07-20T05:02:46;6.03;;;2.95;;
43670;SDS011;29267;50.906;7.248;2023-07-20T05:05:13;6.20;;;3.00;;
43670;SDS011;29267;50.906;7.248;2023-07-20T05:07:40;5.28;;;3.28;;
43670;SDS011;29267;50.906;7.248;2023-07-20T05:10:05;8.98;;;2.83;;
43670;SDS011;29267;50.906;7.248;2023-07-20T05:12:32;5.10;;;2.50;;
43670;SDS011;29267;50.906;7.248;2023-07-20T05:14:57;9.80;;;2.20;;
43670;SDS011;29267;50.906;7.248;2023-07-20T05:17:23;5.65;;;2.50;;
43670;SDS011;29267;50.906;7.248;2023-07-20T05:19:49;11.18;;;2.13;;
43670;SDS011;29267;50.906;7.248;2023-07-20T05:22:15;4.25;;;2.17;;
43670;SDS011;29267;50.906;7.248;2023-07-20T05:24:41;7.47;;;2.30;;
43670;SDS011;29267;50.906;7.248;2023-07-20T05:27:06;9.15;;;2.25;;
43670;SDS011;29267;50.906;7.248;2023-07-20T05:29:32;6.75;;;2.78;;
43670;SDS011;29267;50.906;7.248;2023-07-20T05:31:58;7.38;;;2.83;;
43670;SDS011;29267;50.906;7.248;2023-07-20T05:34:23;5.57;;;2.58;;
43670;SDS011;29267;50.906;7.248;2023-07-20T05:36:49;7.28;;;2.75;;
43670;SDS011;29267;50.906;7.248;2023-07-20T05:39:16;4.78;;;3.00;;
43670;SDS011;29267;50.906;7.248;2023-07-20T05:41:42;8.93;;;2.70;;
43670;SDS011;29267;50.906;7.248;2023-07-20T05:44:08;11.43;;;3.00;;
43670;SDS011;29267;50.906;7.248;2023-07-20T05:46:33;8.15;;;3.20;;
43670;SDS011;29267;50.906;7.248;2023-07-20T05:48:59;9.40;;;3.15;;
43670;SDS011;29267;50.906;7.248;2023-07-20T05:51:25;11.93;;;3.63;;
43670;SDS011;29267;50.906;7.248;2023-07-20T05:53:50;8.68;;;3.22;;
43670;SDS011;29267;50.906;7.248;2023-07-20T05:56:16;6.53;;;2.88;;
43670;SDS011;29267;50.906;7.248;2023-07-20T05:58:42;10.15;;;3.25;;
43670;SDS011;29267;50.906;7.248;2023-07-20T06:01:07;6.25;;;2.45;;
43670;SDS011;29267;50.906;7.248;2023-07-20T06:03:33;8.52;;;2.72;;
43670;SDS011;29267;50.906;7.248;2023-07-20T06:06:02;9.20;;;2.97;;
43670;SDS011;29267;50.906;7.248;2023-07-20T06:08:29;7.10;;;2.70;;
43670;SDS011;29267;50.906;7.248;2023-07-20T06:10:55;6.18;;;2.83;;
43670;SDS011;29267;50.906;7.248;2023-07-20T06:13:21;9.32;;;3.28;;
43670;SDS011;29267;50.906;7.248;2023-07-20T06:15:46;11.05;;;3.63;;
43670;SDS011;29267;50.906;7.248;2023-07-20T06:18:12;6.75;;;3.78;;
43670;SDS011;29267;50.906;7.248;2023-07-20T06:20:38;7.57;;;3.22;;
43670;SDS011;29267;50.906;7.248;2023-07-20T06:23:04;10.85;;;3.67;;
43670;SDS011;29267;50.906;7.248;2023-07-20T06:25:30;7.03;;;3.00;;
43670;SDS011;29267;50.906;7.248;2023-07-20T06:27:56;8.52;;;3.00;;
43670;SDS011;29267;50.906;7.248;2023-07-20T06:30:21;7.03;;;3.20;;
43670;SDS011;29267;50.906;7.248;2023-07-20T06:32:47;6.68;;;3.03;;
43670;SDS011;29267;50.906;7.248;2023-07-20T06:35:13;6.03;;;2.70;;
43670;SDS011;29267;50.906;7.248;2023-07-20T06:37:40;8.57;;;3.38;;
43670;SDS011;29267;50.906;7.248;2023-07-20T06:40:06;5.53;;;3.30;;
43670;SDS011;29267;50.906;7.248;2023-07-20T06:42:33;7.60;;;3.30;;
43670;SDS011;29267;50.906;7.248;2023-07-20T06:45:00;9.75;;;3.05;;
43670;SDS011;29267;50.906;7.248;2023-07-20T06:47:26;11.45;;;3.72;;
43670;SDS011;29267;50.906;7.248;2023-07-20T06:49:52;5.72;;;3.17;;
43670;SDS011;29267;50.906;7.248;2023-07-20T06:52:17;6.28;;;3.83;;
43670;SDS011;29267;50.906;7.248;2023-07-20T06:54:43;9.55;;;4.10;;
43670;SDS011;29267;50.906;7.248;2023-07-20T06:57:08;8.93;;;3.33;;
43670;SDS011;29267;50.906;7.248;2023-07-20T06:59:34;6.22;;;3.50;;
43670;SDS011;29267;50.906;7.248;2023-07-20T07:02:00;12.88;;;4.28;;
43670;SDS011;29267;50.906;7.248;2023-07-20T07:04:25;7.35;;;3.42;;
43670;SDS011;29267;50.906;7.248;2023-07-20T07:06:51;6.80;;;3.15;;
43670;SDS011;29267;50.906;7.248;2023-07-20T07:09:16;8.10;;;3.92;;
43670;SDS011;29267;50.906;7.248;2023-07-20T07:11:43;7.97;;;3.60;;
43670;SDS011;29267;50.906;7.248;2023-07-20T07:14:09;10.85;;;4.07;;
43670;SDS011;29267;50.906;7.248;2023-07-20T07:16:37;12.27;;;4.22;;
43670;SDS011;29267;50.906;7.248;2023-07-20T07:19:03;7.93;;;4.00;;
43670;SDS011;29267;50.906;7.248;2023-07-20T07:21:30;8.20;;;3.70;;
43670;SDS011;29267;50.906;7.248;2023-07-20T07:23:56;5.20;;;3.10;;
43670;SDS011;29267;50.906;7.248;2023-07-20T07:26:22;7.28;;;3.80;;
43670;SDS011;29267;50.906;7.248;2023-07-20T07:28:49;5.70;;;2.95;;
43670;SDS011;29267;50.906;7.248;2023-07-20T07:31:14;5.53;;;2.95;;
43670;SDS011;29267;50.906;7.248;2023-07-20T07:33:40;6.35;;;3.22;;
43670;SDS011;29267;50.906;7.248;2023-07-20T07:36:06;6.97;;;3.42;;
43670;SDS011;29267;50.906;7.248;2023-07-20T07:38:31;5.13;;;2.97;;
43670;SDS011;29267;50.906;7.248;2023-07-20T07:40:57;5.88;;;2.95;;
43670;SDS011;29267;50.906;7.248;2023-07-20T07:43:24;7.10;;;2.33;;
43670;SDS011;29267;50.906;7.248;2023-07-20T07:45:49;5.28;;;2.67;;
43670;SDS011;29267;50.906;7.248;2023-07-20T07:48:15;8.52;;;3.15;;
43670;SDS011;29267;50.906;7.248;2023-07-20T07:50:41;6.60;;;3.20;;
43670;SDS011;29267;50.906;7.248;2023-07-20T07:53:07;7.80;;;3.25;;
43670;SDS011;29267;50.906;7.248;2023-07-20T07:55:33;5.13;;;2.90;;
43670;SDS011;29267;50.906;7.248;2023-07-20T07:58:00;6.25;;;3.17;;
43670;SDS011;29267;50.906;7.248;2023-07-20T08:00:25;8.18;;;3.55;;
43670;SDS011;29267;50.906;7.248;2023-07-20T08:02:51;4.10;;;2.80;;
43670;SDS011;29267;50.906;7.248;2023-07-20T08:05:17;8.88;;;2.88;;
43670;SDS011;29267;50.906;7.248;2023-07-20T08:07:42;8.00;;;2.33;;
43670;SDS011;29267;50.906;7.248;2023-07-20T08:10:08;5.20;;;2.50;;
43670;SDS011;29267;50.906;7.248;2023-07-20T08:12:34;5.45;;;2.60;;
43670;SDS011;29267;50.906;7.248;2023-07-20T08:15:00;4.22;;;2.00;;
43670;SDS011;29267;50.906;7.248;2023-07-20T08:17:26;5.70;;;2.33;;
43670;SDS011;29267;50.906;7.248;2023-07-20T08:19:51;5.25;;;2.20;;
43670;SDS011;29267;50.906;7.248;2023-07-20T08:22:17;7.07;;;2.22;;
43670;SDS011;29267;50.906;7.248;2023-07-20T08:24:43;3.80;;;2.15;;
43670;SDS011;29267;50.906;7.248;2023-07-20T08:27:09;6.78;;;2.20;;
43670;SDS011;29267;50.906;7.248;2023-07-20T08:29:35;4.50;;;2.42;;
43670;SDS011;29267;50.906;7.248;2023-07-20T08:32:02;4.90;;;1.83;;
43670;SDS011;29267;50.906;7.248;2023-07-20T08:34:29;4.22;;;1.80;;
43670;SDS011;29267;50.906;7.248;2023-07-20T08:36:55;4.32;;;1.70;;
43670;SDS011;29267;50.906;7.248;2023-07-20T08:39:22;2.47;;;1.50;;
43670;SDS011;29267;50.906;7.248;2023-07-20T08:41:48;5.93;;;2.08;;
43670;SDS011;29267;50.906;7.248;2023-07-20T08:44:14;2.05;;;1.63;;
43670;SDS011;29267;50.906;7.248;2023-07-20T08:46:40;4.18;;;2.05;;
43670;SDS011;29267;50.906;7.248;2023-07-20T08:49:07;5.68;;;1.63;;
43670;SDS011;29267;50.906;7.248;2023-07-20T08:51:33;4.40;;;2.00;;
43670;SDS011;29267;50.906;7.248;2023-07-20T08:54:01;2.10;;;1.75;;
43670;SDS011;29267;50.906;7.248;2023-07-20T08:56:27;4.97;;;1.80;;
43670;SDS011;29267;50.906;7.248;2023-07-20T08:58:56;3.20;;;1.90;;
43670;SDS011;29267;50.906;7.248;2023-07-20T09:01:23;6.57;;;1.95;;
43670;SDS011;29267;50.906;7.248;2023-07-20T09:03:49;3.42;;;2.00;;
43670;SDS011;29267;50.906;7.248;2023-07-20T09:06:15;1.73;;;1.40;;
43670;SDS011;29267;50.906;7.248;2023-07-20T09:08:41;3.63;;;1.80;;
43670;SDS011;29267;50.906;7.248;2023-07-20T09:11:07;6.47;;;1.80;;
43670;SDS011;29267;50.906;7.248;2023-07-20T09:13:38;4.20;;;1.88;;
43670;SDS011;29267;50.906;7.248;2023-07-20T09:16:04;3.92;;;1.38;;
43670;SDS011;29267;50.906;7.248;2023-07-20T09:18:30;2.25;;;1.40;;
43670;SDS011;29267;50.906;7.248;2023-07-20T09:21:03;3.45;;;1.60;;
43670;SDS011;29267;50.906;7.248;2023-07-20T09:23:37;3.45;;;1.70;;
43670;SDS011;29267;50.906;7.248;2023-07-20T09:26:14;4.18;;;1.67;;
43670;SDS011;29267;50.906;7.248;2023-07-20T09:28:47;8.65;;;1.50;;
43670;SDS011;29267;50.906;7.248;2023-07-20T09:31:17;1.95;;;1.50;;
43670;SDS011;29267;50.906;7.248;2023-07-20T09:33:44;3.05;;;1.60;;
43670;SDS011;29267;50.906;7.248;2023-07-20T09:36:10;2.40;;;1.60;;
43670;SDS011;29267;50.906;7.248;2023-07-20T09:38:41;1.98;;;1.20;;
43670;SDS011;29267;50.906;7.248;2023-07-20T09:41:14;3.85;;;1.40;;
43670;SDS011;29267;50.906;7.248;2023-07-20T09:43:40;2.38;;;1.20;;
43670;SDS011;29267;50.906;7.248;2023-07-20T09:46:06;1.50;;;1.02;;
43670;SDS011;29267;50.906;7.248;2023-07-20T09:48:32;2.72;;;1.00;;
43670;SDS011;29267;50.906;7.248;2023-07-20T09:50:58;1.15;;;0.85;;
43670;SDS011;29267;50.906;7.248;2023-07-20T09:53:24;2.00;;;1.35;;
43670;SDS011;29267;50.906;7.248;2023-07-20T09:55:51;2.95;;;1.10;;
43670;SDS011;29267;50.906;7.248;2023-07-20T09:58:18;1.67;;;1.08;;
43670;SDS011;29267;50.906;7.248;2023-07-20T10:00:45;1.15;;;1.02;;
43670;SDS011;29267;50.906;7.248;2023-07-20T10:03:19;2.45;;;1.00;;
43670;SDS011;29267;50.906;7.248;2023-07-20T10:05:56;2.33;;;0.93;;
43670;SDS011;29267;50.906;7.248;2023-07-20T10:08:25;2.50;;;0.80;;
43670;SDS011;29267;50.906;7.248;2023-07-20T10:10:53;1.42;;;1.02;;
43670;SDS011;29267;50.906;7.248;2023-07-20T10:13:21;5.80;;;1.60;;
43670;SDS011;29267;50.906;7.248;2023-07-20T10:16:01;3.45;;;0.90;;
43670;SDS011;29267;50.906;7.248;2023-07-20T10:18:30;7.07;;;1.02;;
43670;SDS011;29267;50.906;7.248;2023-07-20T10:21:17;3.03;;;1.23;;
43670;SDS011;29267;50.906;7.248;2023-07-20T10:23:44;5.20;;;1.10;;
43670;SDS011;29267;50.906;7.248;2023-07-20T10:26:11;1.80;;;0.82;;
43670;SDS011;29267;50.906;7.248;2023-07-20T10:28:38;2.58;;;1.00;;
43670;SDS011;29267;50.906;7.248;2023-07-20T10:31:05;1.63;;;0.90;;
43670;SDS011;29267;50.906;7.248;2023-07-20T10:33:33;3.78;;;1.10;;
43670;SDS011;29267;50.906;7.248;2023-07-20T10:36:03;1.48;;;0.90;;
43670;SDS011;29267;50.906;7.248;2023-07-20T10:38:42;3.15;;;1.40;;
43670;SDS011;29267;50.906;7.248;2023-07-20T10:41:40;1.55;;;0.98;;
43670;SDS011;29267;50.906;7.248;2023-07-20T10:44:08;2.22;;;1.30;;
43670;SDS011;29267;50.906;7.248;2023-07-20T10:49:03;1.67;;;1.13;;
43670;SDS011;29267;50.906;7.248;2023-07-20T10:51:39;3.70;;;1.00;;
43670;SDS011;29267;50.906;7.248;2023-07-20T10:54:46;4.88;;;1.40;;
43670;SDS011;29267;50.906;7.248;2023-07-20T10:59:48;3.03;;;1.15;;
43670;SDS011;29267;50.906;7.248;2023-07-20T11:02:17;1.15;;;0.93;;
43670;SDS011;29267;50.906;7.248;2023-07-20T11:04:45;3.67;;;0.80;;
43670;SDS011;29267;50.906;7.248;2023-07-20T11:07:15;1.30;;;0.70;;
43670;SDS011;29267;50.906;7.248;2023-07-20T11:09:42;2.58;;;1.05;;
43670;SDS011;29267;50.906;7.248;2023-07-20T11:14:43;3.65;;;1.00;;
43670;SDS011;29267;50.906;7.248;2023-07-20T11:17:18;1.52;;;1.05;;
43670;SDS011;29267;50.906;7.248;2023-07-20T11:19:47;1.55;;;0.77;;
43670;SDS011;29267;50.906;7.248;2023-07-20T11:22:14;2.42;;;0.63;;
43670;SDS011;29267;50.906;7.248;2023-07-20T11:24:42;3.83;;;1.10;;
43670;SDS011;29267;50.906;7.248;2023-07-20T11:27:08;2.60;;;1.10;;
43670;SDS011;29267;50.906;7.248;2023-07-20T11:29:34;3.10;;;0.98;;
43670;SDS011;29267;50.906;7.248;2023-07-20T11:32:00;1.73;;;0.85;;
43670;SDS011;29267;50.906;7.248;2023-07-20T11:34:29;2.40;;;1.00;;
43670;SDS011;29267;50.906;7.248;2023-07-20T11:36:55;2.35;;;1.00;;
43670;SDS011;29267;50.906;7.248;2023-07-20T11:39:21;1.88;;;1.00;;
43670;SDS011;29267;50.906;7.248;2023-07-20T11:41:50;2.63;;;0.93;;
43670;SDS011;29267;50.906;7.248;2023-07-20T11:44:17;1.52;;;0.90;;
43670;SDS011;29267;50.906;7.248;2023-07-20T11:47:03;4.97;;;0.90;;
43670;SDS011;29267;50.906;7.248;2023-07-20T11:49:36;1.88;;;1.00;;
43670;SDS011;29267;50.906;7.248;2023-07-20T11:52:04;0.98;;;0.70;;
43670;SDS011;29267;50.906;7.248;2023-07-20T11:54:31;1.38;;;1.02;;
43670;SDS011;29267;50.906;7.248;2023-07-20T11:57:00;0.85;;;0.65;;
43670;SDS011;29267;50.906;7.248;2023-07-20T11:59:30;8.60;;;1.15;;
43670;SDS011;29267;50.906;7.248;2023-07-20T12:01:56;1.92;;;0.77;;
43670;SDS011;29267;50.906;7.248;2023-07-20T12:04:23;1.33;;;0.85;;
43670;SDS011;29267;50.906;7.248;2023-07-20T12:06:49;2.83;;;1.13;;
43670;SDS011;29267;50.906;7.248;2023-07-20T12:09:14;3.50;;;1.50;;
43670;SDS011;29267;50.906;7.248;2023-07-20T12:11:43;3.85;;;1.52;;
43670;SDS011;29267;50.906;7.248;2023-07-20T12:14:12;1.80;;;1.02;;
43670;SDS011;29267;50.906;7.248;2023-07-20T12:16:38;1.35;;;0.95;;
43670;SDS011;29267;50.906;7.248;2023-07-20T12:19:08;2.30;;;1.05;;
43670;SDS011;29267;50.906;7.248;2023-07-20T12:21:35;1.23;;;0.95;;
43670;SDS011;29267;50.906;7.248;2023-07-20T12:24:02;3.95;;;1.08;;
43670;SDS011;29267;50.906;7.248;2023-07-20T12:26:29;1.98;;;0.60;;
43670;SDS011;29267;50.906;7.248;2023-07-20T12:28:55;2.33;;;0.90;;
43670;SDS011;29267;50.906;7.248;2023-07-20T12:31:21;2.22;;;1.02;;
43670;SDS011;29267;50.906;7.248;2023-07-20T12:33:48;2.53;;;0.80;;
43670;SDS011;29267;50.906;7.248;2023-07-20T12:36:14;3.47;;;0.98;;
43670;SDS011;29267;50.906;7.248;2023-07-20T12:38:40;2.05;;;0.90;;
43670;SDS011;29267;50.906;7.248;2023-07-20T12:41:06;7.45;;;0.70;;
43670;SDS011;29267;50.906;7.248;2023-07-20T12:43:32;1.95;;;0.80;;
43670;SDS011;29267;50.906;7.248;2023-07-20T12:45:58;1.33;;;1.00;;
43670;SDS011;29267;50.906;7.248;2023-07-20T12:48:24;2.28;;;0.80;;
43670;SDS011;29267;50.906;7.248;2023-07-20T12:50:50;1.15;;;0.70;;
43670;SDS011;29267;50.906;7.248;2023-07-20T12:53:16;1.17;;;0.70;;
43670;SDS011;29267;50.906;7.248;2023-07-20T12:55:41;1.27;;;0.95;;
43670;SDS011;29267;50.906;7.248;2023-07-20T12:58:07;1.02;;;0.73;;
43670;SDS011;29267;50.906;7.248;2023-07-20T13:00:34;2.63;;;1.35;;
43670;SDS011;29267;50.906;7.248;2023-07-20T13:03:00;1.25;;;0.88;;
43670;SDS011;29267;50.906;7.248;2023-07-20T13:05:29;1.60;;;0.93;;
43670;SDS011;29267;50.906;7.248;2023-07-20T13:07:58;2.53;;;0.77;;
43670;SDS011;29267;50.906;7.248;2023-07-20T13:10:24;1.13;;;0.73;;
43670;SDS011;29267;50.906;7.248;2023-07-20T13:12:50;1.40;;;0.80;;
43670;SDS011;29267;50.906;7.248;2023-07-20T13:15:15;3.20;;;0.80;;
43670;SDS011;29267;50.906;7.248;2023-07-20T13:17:42;5.03;;;1.15;;
43670;SDS011;29267;50.906;7.248;2023-07-20T13:20:08;1.13;;;0.70;;
43670;SDS011;29267;50.906;7.248;2023-07-20T13:22:38;0.80;;;0.50;;
43670;SDS011;29267;50.906;7.248;2023-07-20T13:25:05;3.28;;;1.38;;
43670;SDS011;29267;50.906;7.248;2023-07-20T13:27:31;3.28;;;0.95;;
43670;SDS011;29267;50.906;7.248;2023-07-20T13:29:58;1.05;;;0.85;;
43670;SDS011;29267;50.906;7.248;2023-07-20T13:32:25;0.85;;;0.60;;
43670;SDS011;29267;50.906;7.248;2023-07-20T13:34:52;5.43;;;1.77;;
43670;SDS011;29267;50.906;7.248;2023-07-20T13:37:17;1.20;;;0.70;;
43670;SDS011;29267;50.906;7.248;2023-07-20T13:39:43;3.50;;;1.00;;
43670;SDS011;29267;50.906;7.248;2023-07-20T13:42:10;0.65;;;0.63;;
43670;SDS011;29267;50.906;7.248;2023-07-20T13:44:37;3.45;;;0.98;;
43670;SDS011;29267;50.906;7.248;2023-07-20T13:47:03;4.40;;;0.80;;
43670;SDS011;29267;50.906;7.248;2023-07-20T13:49:30;1.20;;;0.95;;
43670;SDS011;29267;50.906;7.248;2023-07-20T13:51:57;2.15;;;0.80;;
43670;SDS011;29267;50.906;7.248;2023-07-20T13:54:23;2.58;;;0.85;;
43670;SDS011;29267;50.906;7.248;2023-07-20T13:56:49;1.50;;;0.70;;
43670;SDS011;29267;50.906;7.248;2023-07-20T13:59:15;1.55;;;0.82;;
43670;SDS011;29267;50.906;7.248;2023-07-20T14:01:40;1.15;;;0.70;;
43670;SDS011;29267;50.906;7.248;2023-07-20T14:04:06;9.45;;;2.22;;
43670;SDS011;29267;50.906;7.248;2023-07-20T14:06:32;2.30;;;0.80;;
43670;SDS011;29267;50.906;7.248;2023-07-20T14:08:58;1.63;;;0.80;;
43670;SDS011;29267;50.906;7.248;2023-07-20T14:11:24;1.20;;;0.70;;
43670;SDS011;29267;50.906;7.248;2023-07-20T14:13:50;1.60;;;0.60;;
43670;SDS011;29267;50.906;7.248;2023-07-20T14:16:18;1.40;;;0.80;;
43670;SDS011;29267;50.906;7.248;2023-07-20T14:18:45;1.02;;;0.77;;
43670;SDS011;29267;50.906;7.248;2023-07-20T14:21:12;1.27;;;0.65;;
43670;SDS011;29267;50.906;7.248;2023-07-20T14:23:38;1.00;;;0.70;;
43670;SDS011;29267;50.906;7.248;2023-07-20T14:26:03;2.35;;;0.70;;
43670;SDS011;29267;50.906;7.248;2023-07-20T14:28:34;0.93;;;0.50;;
43670;SDS011;29267;50.906;7.248;2023-07-20T14:31:00;4.13;;;1.00;;
43670;SDS011;29267;50.906;7.248;2023-07-20T14:33:25;1.00;;;0.80;;
43670;SDS011;29267;50.906;7.248;2023-07-20T14:35:51;2.97;;;0.80;;
43670;SDS011;29267;50.906;7.248;2023-07-20T14:38:17;2.00;;;0.88;;
43670;SDS011;29267;50.906;7.248;2023-07-20T14:40:42;0.88;;;0.80;;
43670;SDS011;29267;50.906;7.248;2023-07-20T14:43:08;5.35;;;0.77;;
43670;SDS011;29267;50.906;7.248;2023-07-20T14:45:34;1.55;;;0.88;;
43670;SDS011;29267;50.906;7.248;2023-07-20T14:48:00;0.88;;;0.80;;
43670;SDS011;29267;50.906;7.248;2023-07-20T14:50:26;1.67;;;0.95;;
43670;SDS011;29267;50.906;7.248;2023-07-20T14:52:51;2.25;;;0.85;;
43670;SDS011;29267;50.906;7.248;2023-07-20T14:55:17;2.63;;;0.90;;
43670;SDS011;29267;50.906;7.248;2023-07-20T14:57:43;1.50;;;0.82;;
43670;SDS011;29267;50.906;7.248;2023-07-20T15:00:09;0.95;;;0.70;;
43670;SDS011;29267;50.906;7.248;2023-07-20T15:02:38;2.85;;;0.88;;
43670;SDS011;29267;50.906;7.248;2023-07-20T15:05:07;2.38;;;1.10;;
43670;SDS011;29267;50.906;7.248;2023-07-20T15:07:34;3.30;;;0.90;;
43670;SDS011;29267;50.906;7.248;2023-07-20T15:10:00;1.60;;;1.20;;